Time,TemperatureF,DewpointF,PressureIn,WindDirection,WindDirectionDegrees,WindSpeedMPH,WindSpeedGustMPH,Humidity,HourlyPrecipIn,Conditions,Clouds,dailyrainin,SoftwareType,DateUTC
2013-04-02 00:05:00,49.9,49.1,30.17,NNW,342,0.0,0.0,97,0.00,,,0.00,Wunderground v.1.15,2013-04-02 07:05:00,
2013-04-02 00:10:00,49.9,48.8,30.17,NNW,342,0.0,0.0,96,0.00,,,0.00,Wunderground v.1.15,2013-04-02 07:10:00,
2013-04-02 00:20:00,49.9,49.1,30.17,NNW,342,0.0,0.0,97,0.00,,,0.00,Wunderground v.1.15,2013-04-02 07:20:00,
2013-04-02 00:30:00,49.9,48.8,30.17,NNW,342,0.0,0.0,96,0.00,,,0.00,Wunderground v.1.15,2013-04-02 07:30:00,
2013-04-02 00:40:00,49.9,49.1,30.17,NNW,342,0.0,0.0,97,0.00,,,0.00,Wunderground v.1.15,2013-04-02 07:40:00,
2013-04-02 00:50:00,49.9,49.1,30.18,NNW,333,0.0,0.0,97,0.00,,,0.00,Wunderground v.1.15,2013-04-02 07:50:00,
2013-04-02 01:05:00,49.9,49.1,30.17,NNW,333,0.0,0.0,97,0.00,,,0.00,Wunderground v.1.15,2013-04-02 08:05:00,
2013-04-02 01:10:00,49.9,49.1,30.17,NNW,333,0.0,0.0,97,0.00,,,0.00,Wunderground v.1.15,2013-04-02 08:10:00,
2013-04-02 01:20:00,49.9,49.1,30.17,NNW,333,0.0,0.0,97,0.00,,,0.00,Wunderground v.1.15,2013-04-02 08:20:00,
2013-04-02 01:30:00,49.8,49.0,30.17,NNW,333,0.0,0.0,97,0.00,,,0.00,Wunderground v.1.15,2013-04-02 08:30:00,
2013-04-02 01:40:00,49.8,49.0,30.18,NNW,333,0.0,0.0,97,0.00,,,0.00,Wunderground v.1.15,2013-04-02 08:40:00,
2013-04-02 01:50:00,49.8,49.0,30.18,NNW,333,0.0,0.0,97,0.00,,,0.00,Wunderground v.1.15,2013-04-02 08:50:00,
2013-04-02 02:05:00,49.8,49.3,30.19,NNW,333,0.0,0.0,98,0.00,,,0.00,Wunderground v.1.15,2013-04-02 09:05:00,
2013-04-02 02:10:00,49.8,49.3,30.19,NNW,333,0.0,0.0,98,0.00,,,0.00,Wunderground v.1.15,2013-04-02 09:10:00,
2013-04-02 02:25:00,49.9,49.4,30.19,NNW,333,0.0,0.0,98,0.00,,,0.00,Wunderground v.1.15,2013-04-02 09:25:00,
2013-04-02 02:35:00,49.9,49.4,30.19,NNW,333,0.0,0.0,98,0.00,,,0.00,Wunderground v.1.15,2013-04-02 09:35:00,
2013-04-02 02:45:00,49.8,49.3,30.19,NNW,333,0.0,0.0,98,0.00,,,0.00,Wunderground v.1.15,2013-04-02 09:45:00,
2013-04-02 02:55:00,49.9,49.4,30.20,NNW,333,0.0,0.0,98,0.00,,,0.00,Wunderground v.1.15,2013-04-02 09:55:00,
2013-04-02 03:05:00,49.6,48.8,30.20,West,260,1.0,2.0,97,0.00,,,0.00,Wunderground v.1.15,2013-04-02 10:05:00,
2013-04-02 03:11:00,49.4,48.6,30.20,WNW,302,2.0,2.0,97,0.00,,,0.00,Wunderground v.1.15,2013-04-02 10:11:00,
2013-04-02 03:20:00,49.2,48.1,30.20,South,175,2.0,2.0,96,0.00,,,0.00,Wunderground v.1.15,2013-04-02 10:20:00,
2013-04-02 03:30:00,48.9,47.8,30.20,West,276,1.0,2.0,96,0.00,,,0.00,Wunderground v.1.15,2013-04-02 10:30:00,
2013-04-02 03:40:00,48.7,47.6,30.21,West,273,0.0,3.0,96,0.00,,,0.00,Wunderground v.1.15,2013-04-02 10:40:00,
2013-04-02 03:50:00,48.5,47.4,30.20,NE,35,2.0,2.0,96,0.00,,,0.00,Wunderground v.1.15,2013-04-02 10:50:00,
2013-04-02 04:05:00,48.5,47.4,30.20,NE,55,0.0,0.0,96,0.00,,,0.00,Wunderground v.1.15,2013-04-02 11:05:00,
2013-04-02 04:10:00,48.4,47.3,30.20,NE,55,0.0,0.0,96,0.00,,,0.00,Wunderground v.1.15,2013-04-02 11:10:00,
2013-04-02 04:20:00,48.2,47.1,30.20,NE,55,0.0,0.0,96,0.00,,,0.00,Wunderground v.1.15,2013-04-02 11:20:00,
2013-04-02 04:30:00,48.2,47.4,30.19,NE,55,0.0,0.0,97,0.00,,,0.00,Wunderground v.1.15,2013-04-02 11:30:00,
2013-04-02 04:40:00,48.1,47.0,30.19,NE,55,0.0,0.0,96,0.00,,,0.00,Wunderground v.1.15,2013-04-02 11:40:00,
2013-04-02 04:50:00,48.1,47.3,30.19,NE,55,0.0,0.0,97,0.00,,,0.00,Wunderground v.1.15,2013-04-02 11:50:00,
2013-04-02 05:05:00,47.9,47.1,30.19,NE,55,0.0,0.0,97,0.00,,,0.00,Wunderground v.1.15,2013-04-02 12:05:00,
2013-04-02 05:10:00,47.9,47.1,30.19,NE,55,0.0,0.0,97,0.00,,,0.00,Wunderground v.1.15,2013-04-02 12:10:00,
2013-04-02 05:25:00,47.9,47.1,30.18,NE,55,0.0,0.0,97,0.00,,,0.00,Wunderground v.1.15,2013-04-02 12:25:00,
2013-04-02 05:35:00,47.8,47.0,30.18,NE,55,0.0,0.0,97,0.00,,,0.00,Wunderground v.1.15,2013-04-02 12:35:00,
2013-04-02 05:40:00,47.8,47.0,30.18,NE,55,0.0,0.0,97,0.00,,,0.00,Wunderground v.1.15,2013-04-02 12:40:00,
2013-04-02 05:50:00,47.8,47.0,30.18,NE,55,0.0,0.0,97,0.00,,,0.00,Wunderground v.1.15,2013-04-02 12:50:00,
2013-04-02 06:05:00,47.9,47.4,30.17,NE,55,0.0,0.0,98,0.00,,,0.00,Wunderground v.1.15,2013-04-02 13:05:00,
2013-04-02 06:16:00,47.9,47.4,30.17,NE,55,0.0,0.0,98,0.00,,,0.00,Wunderground v.1.15,2013-04-02 13:16:00,
2013-04-02 06:25:00,47.9,47.4,30.17,NE,55,0.0,0.0,98,0.00,,,0.00,Wunderground v.1.15,2013-04-02 13:25:00,
2013-04-02 06:35:00,47.9,47.4,30.17,North,355,0.0,1.0,98,0.00,,,0.00,Wunderground v.1.15,2013-04-02 13:35:00,
2013-04-02 06:45:00,47.9,47.4,30.17,North,355,0.0,0.0,98,0.00,,,0.00,Wunderground v.1.15,2013-04-02 13:45:00,
2013-04-02 06:55:00,47.8,47.3,30.17,North,355,0.0,0.0,98,0.00,,,0.00,Wunderground v.1.15,2013-04-02 13:55:00,
2013-04-02 07:05:00,47.9,47.4,30.17,North,355,0.0,0.0,98,0.00,,,0.00,Wunderground v.1.15,2013-04-02 14:05:00,
2013-04-02 07:11:00,47.9,47.4,30.17,North,355,0.0,0.0,98,0.00,,,0.00,Wunderground v.1.15,2013-04-02 14:11:00,
2013-04-02 07:20:00,48.0,47.5,30.17,North,355,0.0,0.0,98,0.00,,,0.00,Wunderground v.1.15,2013-04-02 14:20:00,
2013-04-02 07:35:00,48.2,47.7,30.17,North,355,0.0,0.0,98,0.00,,,0.00,Wunderground v.1.15,2013-04-02 14:35:00,
2013-04-02 07:45:00,48.4,47.9,30.17,North,355,0.0,0.0,98,0.00,,,0.00,Wunderground v.1.15,2013-04-02 14:45:00,
2013-04-02 08:05:00,48.8,48.3,30.18,North,355,0.0,0.0,98,0.00,,,0.00,Wunderground v.1.15,2013-04-02 15:05:00,
2013-04-02 08:10:00,49.0,48.5,30.18,North,355,0.0,0.0,98,0.00,,,0.00,Wunderground v.1.15,2013-04-02 15:10:00,
2013-04-02 08:20:00,49.1,48.6,30.18,North,355,0.0,0.0,98,0.00,,,0.00,Wunderground v.1.15,2013-04-02 15:20:00,
2013-04-02 08:30:00,49.2,48.7,30.18,North,355,0.0,0.0,98,0.00,,,0.00,Wunderground v.1.15,2013-04-02 15:30:00,
2013-04-02 08:40:00,49.3,48.8,30.18,North,355,0.0,0.0,98,0.00,,,0.00,Wunderground v.1.15,2013-04-02 15:40:00,
2013-04-02 08:45:00,49.4,48.6,30.18,North,355,0.0,0.0,97,0.00,,,0.00,Wunderground v.1.15,2013-04-02 15:45:00,
2013-04-02 08:55:00,49.5,48.7,30.18,North,355,0.0,0.0,97,0.00,,,0.00,Wunderground v.1.15,2013-04-02 15:55:00,
2013-04-02 09:05:00,49.6,48.2,30.19,ENE,71,0.0,0.0,95,0.00,,,0.00,Wunderground v.1.15,2013-04-02 16:05:00,
2013-04-02 09:10:00,49.7,48.6,30.19,ENE,71,0.0,0.0,96,0.00,,,0.00,Wunderground v.1.15,2013-04-02 16:10:00,
2013-04-02 09:25:00,50.1,48.7,30.18,NE,34,0.0,1.0,95,0.00,,,0.00,Wunderground v.1.15,2013-04-02 16:25:00,
2013-04-02 09:40:00,50.5,49.1,30.19,West,266,0.0,0.0,95,0.00,,,0.00,Wunderground v.1.15,2013-04-02 16:40:00,
2013-04-02 09:50:00,50.9,49.2,30.19,SSW,208,0.0,0.0,94,0.00,,,0.00,Wunderground v.1.15,2013-04-02 16:50:00,
2013-04-02 10:05:00,52.3,50.0,30.19,WNW,282,0.0,3.0,92,0.00,,,0.00,Wunderground v.1.15,2013-04-02 17:05:00,
2013-04-02 10:15:00,52.2,50.2,30.19,NW,317,1.0,4.0,93,0.00,,,0.00,Wunderground v.1.15,2013-04-02 17:15:00,
2013-04-02 10:25:00,52.2,49.9,30.19,NW,319,1.0,1.0,92,0.00,,,0.00,Wunderground v.1.15,2013-04-02 17:25:00,
2013-04-02 10:30:00,52.3,50.0,30.19,WNW,302,0.0,3.0,92,0.00,,,0.00,Wunderground v.1.15,2013-04-02 17:30:00,
2013-04-02 10:45:00,52.7,50.1,30.20,WNW,289,1.0,2.0,91,0.00,,,0.00,Wunderground v.1.15,2013-04-02 17:45:00,
2013-04-02 11:05:00,53.0,50.7,30.20,NNW,327,2.0,3.0,92,0.00,,,0.00,Wunderground v.1.15,2013-04-02 18:05:00,
2013-04-02 11:10:00,53.0,50.1,30.20,WNW,286,3.0,3.0,90,0.00,,,0.00,Wunderground v.1.15,2013-04-02 18:10:00,
2013-04-02 11:20:00,53.4,50.5,30.20,NW,319,2.0,3.0,90,0.00,,,0.00,Wunderground v.1.15,2013-04-02 18:20:00,
2013-04-02 11:30:00,53.7,50.5,30.20,West,279,2.0,3.0,89,0.00,,,0.00,Wunderground v.1.15,2013-04-02 18:30:00,
2013-04-02 11:45:00,54.1,50.9,30.20,NNW,332,2.0,4.0,89,0.00,,,0.00,Wunderground v.1.15,2013-04-02 18:45:00,
2013-04-02 12:05:00,54.8,51.0,30.20,West,277,2.0,2.0,87,0.00,,,0.00,Wunderground v.1.15,2013-04-02 19:05:00,
2013-04-02 12:10:00,55.1,51.6,30.20,SW,215,1.0,2.0,88,0.00,,,0.00,Wunderground v.1.15,2013-04-02 19:10:00,
2013-04-02 12:20:00,55.6,51.8,30.20,NNW,348,3.0,5.0,87,0.00,,,0.00,Wunderground v.1.15,2013-04-02 19:20:00,
2013-04-02 12:30:00,55.6,51.2,30.19,NW,315,3.0,4.0,85,0.00,,,0.00,Wunderground v.1.15,2013-04-02 19:30:00,
2013-04-02 12:45:00,56.3,51.8,30.19,NW,313,3.0,3.0,85,0.00,,,0.00,Wunderground v.1.15,2013-04-02 19:45:00,
2013-04-02 13:05:00,56.9,52.4,30.18,North,5,3.0,3.0,85,0.00,,,0.00,Wunderground v.1.15,2013-04-02 20:05:00,
2013-04-02 13:10:00,57.3,52.8,30.18,North,5,3.0,3.0,85,0.00,,,0.00,Wunderground v.1.15,2013-04-02 20:10:00,
2013-04-02 13:20:00,57.5,52.4,30.18,North,360,3.0,3.0,83,0.00,,,0.00,Wunderground v.1.15,2013-04-02 20:20:00,
2013-04-02 13:25:00,57.5,52.0,30.17,East,82,3.0,3.0,82,0.00,,,0.00,Wunderground v.1.15,2013-04-02 20:25:00,
2013-04-02 13:35:00,57.9,52.4,30.17,NNE,30,2.0,7.0,82,0.00,,,0.00,Wunderground v.1.15,2013-04-02 20:35:00,
2013-04-02 13:45:00,58.9,53.1,30.17,NW,319,2.0,2.0,81,0.00,,,0.00,Wunderground v.1.15,2013-04-02 20:45:00,
2013-04-02 14:06:00,60.6,53.7,30.16,NNW,334,3.0,3.0,78,0.00,,,0.00,Wunderground v.1.15,2013-04-02 21:06:00,
2013-04-02 14:11:00,60.6,53.0,30.16,NW,319,2.0,3.0,76,0.00,,,0.00,Wunderground v.1.15,2013-04-02 21:11:00,
2013-04-02 14:20:00,61.3,55.1,30.15,NE,44,2.0,2.0,80,0.00,,,0.00,Wunderground v.1.15,2013-04-02 21:20:00,
2013-04-02 14:30:00,62.4,54.0,30.15,North,9,2.0,3.0,74,0.00,,,0.00,Wunderground v.1.15,2013-04-02 21:30:00,
2013-04-02 14:35:00,62.2,53.4,30.15,NW,306,3.0,5.0,73,0.00,,,0.00,Wunderground v.1.15,2013-04-02 21:35:00,
2013-04-02 14:45:00,62.8,53.6,30.14,NNW,344,3.0,5.0,72,0.00,,,0.00,Wunderground v.1.15,2013-04-02 21:45:00,
2013-04-02 14:55:00,63.5,54.7,30.14,West,269,2.0,2.0,73,0.00,,,0.00,Wunderground v.1.15,2013-04-02 21:55:00,
2013-04-02 15:05:00,64.3,55.5,30.14,NNW,339,4.0,4.0,73,0.00,,,0.00,Wunderground v.1.15,2013-04-02 22:05:00,
2013-04-02 15:15:00,64.7,56.2,30.13,North,355,3.0,3.0,74,0.00,,,0.00,Wunderground v.1.15,2013-04-02 22:15:00,
2013-04-02 15:30:00,64.2,54.6,30.13,NNW,329,4.0,6.0,71,0.00,,,0.00,Wunderground v.1.15,2013-04-02 22:30:00,
2013-04-02 15:40:00,64.3,54.7,30.12,North,355,3.0,5.0,71,0.00,,,0.00,Wunderground v.1.15,2013-04-02 22:40:00,
2013-04-02 15:50:00,64.7,54.7,30.12,NNE,13,3.0,3.0,70,0.00,,,0.00,Wunderground v.1.15,2013-04-02 22:50:00,
2013-04-02 15:55:00,64.8,54.8,30.12,NW,314,3.0,3.0,70,0.00,,,0.00,Wunderground v.1.15,2013-04-02 22:55:00,
2013-04-02 16:06:00,64.4,54.8,30.12,NW,308,3.0,5.0,71,0.00,,,0.00,Wunderground v.1.15,2013-04-02 23:06:00,
2013-04-02 16:20:00,63.5,53.5,30.12,NW,319,4.0,5.0,70,0.00,,,0.00,Wunderground v.1.15,2013-04-02 23:20:00,
2013-04-02 16:30:00,62.7,53.9,30.12,NW,310,4.0,4.0,73,0.00,,,0.00,Wunderground v.1.15,2013-04-02 23:30:00,
2013-04-02 16:50:00,61.3,52.2,30.12,NW,309,4.0,4.0,72,0.00,,,0.00,Wunderground v.1.15,2013-04-02 23:50:00,
2013-04-02 17:05:00,59.7,51.4,30.12,WSW,254,3.0,10.0,74,0.00,,,0.00,Wunderground v.1.15,2013-04-03 00:05:00,
2013-04-02 17:15:00,58.6,51.1,30.12,West,278,5.0,5.0,76,0.00,,,0.00,Wunderground v.1.15,2013-04-03 00:15:00,
2013-04-02 17:20:00,58.2,50.3,30.12,WSW,257,4.0,5.0,75,0.00,,,0.00,Wunderground v.1.15,2013-04-03 00:20:00,
2013-04-02 17:30:00,57.1,50.3,30.12,WNW,300,5.0,6.0,78,0.00,,,0.00,Wunderground v.1.15,2013-04-03 00:30:00,
2013-04-02 17:40:00,56.2,49.8,30.12,NNW,338,4.0,6.0,79,0.00,,,0.00,Wunderground v.1.15,2013-04-03 00:40:00,
2013-04-02 17:50:00,55.8,49.7,30.13,SW,225,3.0,4.0,80,0.00,,,0.00,Wunderground v.1.15,2013-04-03 00:50:00,
2013-04-02 17:55:00,55.7,49.6,30.14,NW,312,3.0,4.0,80,0.00,,,0.00,Wunderground v.1.15,2013-04-03 00:55:00,
2013-04-02 18:05:00,55.1,49.4,30.13,West,276,4.0,4.0,81,0.00,,,0.00,Wunderground v.1.15,2013-04-03 01:05:00,
2013-04-02 18:15:00,54.7,49.3,30.14,WNW,284,3.0,3.0,82,0.00,,,0.00,Wunderground v.1.15,2013-04-03 01:15:00,
2013-04-02 18:25:00,54.3,49.6,30.14,NNW,337,2.0,2.0,84,0.00,,,0.00,Wunderground v.1.15,2013-04-03 01:25:00,
2013-04-02 18:35:00,53.4,49.0,30.14,West,275,3.0,4.0,85,0.00,,,0.00,Wunderground v.1.15,2013-04-03 01:35:00,
2013-04-02 18:45:00,52.4,48.3,30.14,SW,219,3.0,3.0,86,0.00,,,0.00,Wunderground v.1.15,2013-04-03 01:45:00,
2013-04-02 18:50:00,51.9,48.2,30.14,NNW,329,3.0,4.0,87,0.00,,,0.00,Wunderground v.1.15,2013-04-03 01:50:00,
2013-04-02 19:05:00,50.5,47.7,30.14,WNW,293,3.0,3.0,90,0.00,,,0.00,Wunderground v.1.15,2013-04-03 02:05:00,
2013-04-02 19:15:00,50.0,47.5,30.14,NW,307,1.0,1.0,91,0.00,,,0.00,Wunderground v.1.15,2013-04-03 02:15:00,
2013-04-02 19:30:00,49.6,47.4,30.13,SW,234,1.0,3.0,92,0.00,,,0.00,Wunderground v.1.15,2013-04-03 02:30:00,
2013-04-02 19:45:00,49.6,47.7,30.14,WNW,285,1.0,2.0,93,0.00,,,0.00,Wunderground v.1.15,2013-04-03 02:45:00,
2013-04-02 19:55:00,49.6,47.7,30.14,WNW,295,1.0,1.0,93,0.00,,,0.00,Wunderground v.1.15,2013-04-03 02:55:00,
2013-04-02 20:15:00,49.4,47.5,30.14,NW,325,1.0,1.0,93,0.00,,,0.00,Wunderground v.1.15,2013-04-03 03:15:00,
2013-04-02 20:20:00,49.4,47.5,30.14,NW,309,0.0,1.0,93,0.00,,,0.00,Wunderground v.1.15,2013-04-03 03:20:00,
2013-04-02 20:30:00,49.2,47.3,30.14,NNW,329,1.0,2.0,93,0.00,,,0.00,Wunderground v.1.15,2013-04-03 03:30:00,
2013-04-02 20:40:00,48.8,46.9,30.14,WNW,290,1.0,1.0,93,0.00,,,0.00,Wunderground v.1.15,2013-04-03 03:40:00,
2013-04-02 20:50:00,48.6,47.0,30.15,West,281,1.0,1.0,94,0.00,,,0.00,Wunderground v.1.15,2013-04-03 03:50:00,
2013-04-02 21:05:00,48.2,46.6,30.15,NW,317,0.0,0.0,94,0.00,,,0.00,Wunderground v.1.15,2013-04-03 04:05:00,
2013-04-02 21:10:00,48.1,46.5,30.15,NW,317,0.0,0.0,94,0.00,,,0.00,Wunderground v.1.15,2013-04-03 04:10:00,
2013-04-02 21:20:00,48.1,46.7,30.15,NW,317,0.0,0.0,95,0.00,,,0.00,Wunderground v.1.15,2013-04-03 04:20:00,
2013-04-02 21:25:00,48.0,46.6,30.16,NW,307,0.0,0.0,95,0.00,,,0.00,Wunderground v.1.15,2013-04-03 04:25:00,
2013-04-02 21:35:00,47.9,46.5,30.16,WNW,296,0.0,0.0,95,0.00,,,0.00,Wunderground v.1.15,2013-04-03 04:35:00,
2013-04-02 21:45:00,47.7,46.3,30.16,West,266,1.0,1.0,95,0.00,,,0.00,Wunderground v.1.15,2013-04-03 04:45:00,
2013-04-02 21:50:00,47.7,46.3,30.16,WNW,286,1.0,1.0,95,0.00,,,0.00,Wunderground v.1.15,2013-04-03 04:50:00,
2013-04-02 22:05:00,47.6,46.5,30.16,WNW,286,0.0,0.0,96,0.00,,,0.00,Wunderground v.1.15,2013-04-03 05:05:00,
2013-04-02 22:15:00,47.5,46.4,30.16,NE,41,0.0,0.0,96,0.00,,,0.00,Wunderground v.1.15,2013-04-03 05:15:00,
2013-04-02 22:25:00,47.5,46.4,30.15,NE,41,0.0,0.0,96,0.00,,,0.00,Wunderground v.1.15,2013-04-03 05:25:00,
2013-04-02 22:35:00,47.4,46.3,30.15,NE,38,0.0,1.0,96,0.00,,,0.00,Wunderground v.1.15,2013-04-03 05:35:00,
2013-04-02 22:45:00,47.3,46.2,30.15,NE,38,0.0,0.0,96,0.00,,,0.00,Wunderground v.1.15,2013-04-03 05:45:00,
2013-04-02 22:55:00,47.2,46.1,30.15,NNE,33,0.0,0.0,96,0.00,,,0.00,Wunderground v.1.15,2013-04-03 05:55:00,
2013-04-02 23:05:00,47.0,46.2,30.15,NNE,33,0.0,1.0,97,0.00,,,0.00,Wunderground v.1.15,2013-04-03 06:05:00,
2013-04-02 23:10:00,47.0,46.2,30.15,WNW,284,0.0,1.0,97,0.00,,,0.00,Wunderground v.1.15,2013-04-03 06:10:00,
2013-04-02 23:20:00,47.0,46.2,30.15,WNW,284,0.0,0.0,97,0.00,,,0.00,Wunderground v.1.15,2013-04-03 06:20:00,
2013-04-02 23:30:00,47.0,46.2,30.15,WNW,284,0.0,0.0,97,0.00,,,0.00,Wunderground v.1.15,2013-04-03 06:30:00,
2013-04-02 23:40:00,46.9,46.1,30.15,WNW,284,0.0,0.0,97,0.00,,,0.00,Wunderground v.1.15,2013-04-03 06:40:00,
2013-04-02 23:50:00,46.8,46.0,30.15,WNW,284,0.0,0.0,97,0.00,,,0.00,Wunderground v.1.15,2013-04-03 06:50:00,